Terminal Aerodrome Forecast
Issued by NWS Charleston, WV

Current Version | Previous Version | Graphics & Text | Print | Product List | Glossary On
Versions: 1 2 3 4 5 6 7 8 9 10 11 12 13 14 15 16 17 18 19 20 21 22
000
FTUS41 KRLX 090200 AAA
TAFHTS
TAF AMD
KHTS 090240Z 0903/0924 26011KT P6SM SCT045
     FM090600 23007KT 6SM BR SCT045
     FM091400 24007KT P6SM SCT045=

USA.gov is the U.S. government's official web portal to all federal, state and local government web resources and services.